Time;durP1;ratioP1;P1;durP2;ratioP2;P2;SDS_P1;SDS_P2;PMS_P1;PMS_P2;Temp;Humidity;BMP_temperature;BMP_pressure;BME280_temperature;BME280_humidity;BME280_pressure;Samples;Min_cycle;Max_cycle;Signal;HPM_P1;HPM_P2
2022/08/16 00:03:02;;;;;;;4.77;3.40;;;;;;;;;;10015111;29;20509;-88
2022/08/16 00:08:04;;;;;;;6.00;3.60;;;;;;;;;;10006958;29;20859;-88
2022/08/16 00:13:10;;;;;;;4.53;3.78;;;;;;;;;;10005495;29;20517;-89
2022/08/16 00:18:13;;;;;;;5.82;3.90;;;;;;;;;;10009454;29;20494;-88
2022/08/16 00:23:15;;;;;;;5.87;4.23;;;;;;;;;;10006685;29;20426;-88
2022/08/16 00:28:19;;;;;;;3.90;2.88;;;;;;;;;;10004854;29;20855;-88
2022/08/16 00:33:21;;;;;;;5.37;3.60;;;;;;;;;;10008726;29;20450;-88
2022/08/16 00:38:23;;;;;;;5.55;3.80;;;;;;;;;;10008588;29;20446;-88
2022/08/16 00:43:28;;;;;;;4.20;3.80;;;;;;;;;;10003846;29;20518;-88
2022/08/16 00:48:30;;;;;;;5.20;3.72;;;;;;;;;;10008839;29;20493;-88
2022/08/16 00:53:33;;;;;;;5.00;3.95;;;;;;;;;;10004092;29;20795;-88
2022/08/16 00:58:41;;;;;;;6.25;4.10;;;;;;;;;;9996754;29;20459;-88
2022/08/16 01:03:46;;;;;;;4.30;3.90;;;;;;;;;;10007980;29;21118;-89
2022/08/16 01:08:53;;;;;;;6.33;3.73;;;;;;;;;;10009349;29;20474;-89
2022/08/16 01:14:02;;;;;;;5.97;4.13;;;;;;;;;;10045937;29;20433;-88
2022/08/16 01:19:14;;;;;;;4.97;3.80;;;;;;;;;;10001838;29;20450;-88
2022/08/16 01:24:22;;;;;;;3.40;3.10;;;;;;;;;;10005893;29;20517;-88
2022/08/16 01:29:29;;;;;;;4.85;3.30;;;;;;;;;;10003643;29;20787;-88
2022/08/16 01:34:31;;;;;;;9.40;3.63;;;;;;;;;;10008041;29;20448;-88
2022/08/16 01:39:35;;;;;;;4.78;3.67;;;;;;;;;;10007800;29;20512;-88
2022/08/16 01:44:37;;;;;;;4.30;3.30;;;;;;;;;;10005281;29;20512;-88
2022/08/16 01:49:43;;;;;;;7.90;3.87;;;;;;;;;;10014664;29;20429;-88
2022/08/16 01:54:46;;;;;;;4.50;3.53;;;;;;;;;;10011403;29;20446;-88
2022/08/16 01:59:48;;;;;;;3.83;3.28;;;;;;;;;;10006230;29;20979;-88
2022/08/16 02:04:50;;;;;;;3.60;3.30;;;;;;;;;;10014359;29;20461;-88
2022/08/16 02:09:54;;;;;;;4.47;3.45;;;;;;;;;;10013816;29;20521;-88
2022/08/16 02:14:55;;;;;;;3.90;3.50;;;;;;;;;;10010228;29;20863;-87
2022/08/16 02:19:57;;;;;;;4.80;3.65;;;;;;;;;;10013996;29;20513;-88
2022/08/16 02:25:02;;;;;;;5.00;3.33;;;;;;;;;;10008419;29;20501;-88
2022/08/16 02:30:06;;;;;;;3.27;2.97;;;;;;;;;;10009453;29;20453;-88
2022/08/16 02:35:08;;;;;;;4.00;3.20;;;;;;;;;;10013269;29;20483;-88
2022/08/16 02:40:15;;;;;;;4.10;3.53;;;;;;;;;;10011605;29;20424;-88
2022/08/16 02:45:19;;;;;;;4.10;3.50;;;;;;;;;;9993584;29;20425;-88
2022/08/16 02:50:22;;;;;;;4.45;3.70;;;;;;;;;;10012474;29;20423;-88
2022/08/16 02:55:25;;;;;;;5.03;3.67;;;;;;;;;;10008120;29;20450;-88
2022/08/16 03:00:27;;;;;;;5.20;4.23;;;;;;;;;;10012147;29;20415;-88
2022/08/16 03:05:29;;;;;;;5.07;3.80;;;;;;;;;;10013121;29;20454;-88
2022/08/16 03:10:33;;;;;;;5.43;4.28;;;;;;;;;;10007936;29;21166;-88
2022/08/16 03:15:35;;;;;;;6.07;4.65;;;;;;;;;;10004880;29;20482;-88
2022/08/16 03:20:37;;;;;;;8.77;4.90;;;;;;;;;;10011464;29;20501;-88
2022/08/16 03:25:41;;;;;;;7.57;4.80;;;;;;;;;;10007709;29;20492;-88
2022/08/16 03:30:43;;;;;;;8.13;5.50;;;;;;;;;;10011251;29;20482;-88
2022/08/16 03:35:44;;;;;;;7.47;4.97;;;;;;;;;;10010921;29;21026;-88
2022/08/16 03:40:48;;;;;;;6.53;5.30;;;;;;;;;;10006158;29;20520;-88
2022/08/16 03:45:51;;;;;;;7.17;5.30;;;;;;;;;;10011238;29;20430;-89
2022/08/16 03:50:53;;;;;;;6.10;4.90;;;;;;;;;;10010439;29;20438;-89
2022/08/16 03:55:56;;;;;;;7.57;5.30;;;;;;;;;;10006276;29;20442;-88
2022/08/16 04:00:58;;;;;;;6.45;4.93;;;;;;;;;;10010715;29;20457;-89
2022/08/16 04:06:00;;;;;;;6.10;5.00;;;;;;;;;;10010626;29;20905;-89
2022/08/16 04:11:06;;;;;;;5.95;5.28;;;;;;;;;;10020703;29;20458;-89
2022/08/16 04:16:08;;;;;;;8.00;4.93;;;;;;;;;;10005539;29;20473;-88
2022/08/16 04:21:10;;;;;;;5.90;4.50;;;;;;;;;;10009350;29;20457;-89
2022/08/16 04:26:13;;;;;;;7.90;5.10;;;;;;;;;;10004219;29;20422;-89
2022/08/16 04:31:15;;;;;;;8.83;4.80;;;;;;;;;;10009220;29;20513;-89
2022/08/16 04:36:17;;;;;;;6.18;4.97;;;;;;;;;;10008982;29;20529;-88
2022/08/16 04:41:20;;;;;;;6.38;4.90;;;;;;;;;;10004614;29;20505;-89
2022/08/16 04:46:22;;;;;;;6.80;4.37;;;;;;;;;;10008113;29;21237;-89
2022/08/16 04:51:24;;;;;;;5.97;4.50;;;;;;;;;;10008721;29;20506;-89
2022/08/16 04:56:28;;;;;;;6.27;4.07;;;;;;;;;;10004805;29;20434;-89
2022/08/16 05:01:30;;;;;;;7.00;4.13;;;;;;;;;;10033066;29;20423;-88
2022/08/16 05:06:32;;;;;;;5.32;4.30;;;;;;;;;;10028834;29;20413;-89
2022/08/16 05:11:35;;;;;;;5.90;4.27;;;;;;;;;;10000043;29;20513;-89
2022/08/16 05:16:37;;;;;;;6.65;4.40;;;;;;;;;;10008595;29;20520;-88
2022/08/16 05:21:39;;;;;;;6.68;4.20;;;;;;;;;;10007793;29;20505;-89
2022/08/16 05:26:42;;;;;;;6.07;3.80;;;;;;;;;;10000024;29;20521;-89
2022/08/16 05:31:44;;;;;;;5.28;3.45;;;;;;;;;;10008075;29;20425;-89
2022/08/16 05:36:46;;;;;;;4.28;2.88;;;;;;;;;;10007581;29;20539;-88
2022/08/16 05:41:50;;;;;;;3.30;2.88;;;;;;;;;;10002698;29;20517;-89
2022/08/16 05:46:54;;;;;;;4.80;2.80;;;;;;;;;;10006971;29;20453;-89
2022/08/16 05:51:58;;;;;;;2.87;2.10;;;;;;;;;;10007246;29;20450;-88
2022/08/16 05:57:01;;;;;;;2.78;2.40;;;;;;;;;;10002613;29;20449;-89
2022/08/16 06:02:04;;;;;;;3.17;2.47;;;;;;;;;;10007046;29;20951;-89
2022/08/16 06:07:07;;;;;;;2.95;2.30;;;;;;;;;;10000763;29;20509;-89
2022/08/16 06:12:11;;;;;;;2.90;2.60;;;;;;;;;;10002142;29;20906;-88
2022/08/16 06:17:15;;;;;;;4.57;2.83;;;;;;;;;;10006687;29;20477;-89
2022/08/16 06:22:17;;;;;;;3.10;2.80;;;;;;;;;;10007195;29;20510;-89
2022/08/16 06:27:20;;;;;;;4.27;3.37;;;;;;;;;;10001033;29;20457;-89
2022/08/16 06:32:22;;;;;;;4.55;3.40;;;;;;;;;;10009399;29;20926;-89
2022/08/16 06:37:24;;;;;;;4.72;4.03;;;;;;;;;;10013368;29;21018;-89
2022/08/16 06:42:27;;;;;;;4.33;3.50;;;;;;;;;;10008338;29;20431;-89
2022/08/16 06:47:29;;;;;;;5.82;4.03;;;;;;;;;;10012906;29;20545;-90
2022/08/16 06:52:35;;;;;;;4.32;3.72;;;;;;;;;;10013405;29;20521;-89
2022/08/16 06:57:38;;;;;;;3.60;3.20;;;;;;;;;;9996248;29;20446;-89
2022/08/16 07:02:40;;;;;;;3.97;3.20;;;;;;;;;;10012443;29;20505;-89
2022/08/16 07:07:44;;;;;;;4.13;3.40;;;;;;;;;;10012683;29;20509;-89
2022/08/16 07:12:49;;;;;;;3.65;3.10;;;;;;;;;;10009016;29;20491;-90
2022/08/16 07:17:52;;;;;;;4.27;3.17;;;;;;;;;;10012147;29;20438;-88
2022/08/16 07:22:56;;;;;;;3.42;2.47;;;;;;;;;;10011651;29;20433;-88
2022/08/16 07:28:00;;;;;;;3.10;2.45;;;;;;;;;;10007371;29;20418;-90
2022/08/16 07:33:03;;;;;;;2.70;2.15;;;;;;;;;;10011834;29;20430;-89
2022/08/16 07:38:06;;;;;;;2.00;1.57;;;;;;;;;;9999546;29;20446;-90
2022/08/16 07:43:09;;;;;;;1.70;1.50;;;;;;;;;;10006374;29;20434;-89
2022/08/16 07:48:11;;;;;;;2.17;1.67;;;;;;;;;;10011359;29;20437;-89
2022/08/16 07:53:14;;;;;;;1.50;1.40;;;;;;;;;;10010917;29;20506;-89
2022/08/16 07:58:17;;;;;;;2.03;1.83;;;;;;;;;;10002097;29;20533;-90
2022/08/16 08:03:19;;;;;;;2.00;1.80;;;;;;;;;;10010539;29;20509;-90
2022/08/16 08:08:21;;;;;;;1.95;1.85;;;;;;;;;;10010517;29;20501;-90
2022/08/16 08:13:24;;;;;;;3.08;2.47;;;;;;;;;;10006919;29;20426;-90
2022/08/16 08:18:28;;;;;;;2.40;2.20;;;;;;;;;;10009794;29;20438;-90
2022/08/16 08:23:30;;;;;;;4.10;2.58;;;;;;;;;;10014250;29;20433;-89
2022/08/16 08:28:34;;;;;;;3.05;2.70;;;;;;;;;;10003129;29;20521;-90
2022/08/16 08:33:36;;;;;;;2.30;2.10;;;;;;;;;;10015322;29;20525;-91
2022/08/16 08:38:38;;;;;;;2.80;2.50;;;;;;;;;;10014002;29;20521;-90
2022/08/16 08:43:42;;;;;;;3.85;2.90;;;;;;;;;;10009692;29;20459;-90
2022/08/16 08:48:45;;;;;;;3.28;2.90;;;;;;;;;;10013739;29;20415;-90
2022/08/16 08:53:47;;;;;;;2.43;2.23;;;;;;;;;;10012346;29;20762;-90
2022/08/16 08:58:52;;;;;;;4.30;2.60;;;;;;;;;;10009284;29;20433;-90
2022/08/16 09:03:55;;;;;;;3.83;2.50;;;;;;;;;;10013968;29;20464;-90
2022/08/16 09:08:56;;;;;;;2.60;2.40;;;;;;;;;;10013208;29;20513;-90
2022/08/16 09:14:00;;;;;;;2.70;2.40;;;;;;;;;;10005058;29;20418;-90
2022/08/16 09:19:02;;;;;;;2.53;2.33;;;;;;;;;;10012883;29;20529;-90
2022/08/16 09:24:05;;;;;;;2.97;2.42;;;;;;;;;;10010749;29;20456;-90
2022/08/16 09:29:08;;;;;;;2.20;2.00;;;;;;;;;;10001313;29;20900;-90
2022/08/16 09:34:10;;;;;;;2.95;1.90;;;;;;;;;;10012971;29;21210;-90
2022/08/16 09:39:12;;;;;;;2.38;2.17;;;;;;;;;;10012275;29;20446;-90
2022/08/16 09:44:16;;;;;;;2.70;1.63;;;;;;;;;;10008544;29;20814;-90
2022/08/16 09:49:19;;;;;;;1.70;1.60;;;;;;;;;;10014954;29;20453;-90
2022/08/16 09:54:21;;;;;;;2.78;1.60;;;;;;;;;;10025892;29;21113;-91
2022/08/16 09:59:25;;;;;;;1.80;1.40;;;;;;;;;;10016483;29;20430;-90
2022/08/16 10:04:29;;;;;;;1.40;1.30;;;;;;;;;;10013185;29;20486;-90
2022/08/16 10:09:31;;;;;;;1.75;1.20;;;;;;;;;;10019910;29;20862;-90
2022/08/16 10:14:37;;;;;;;1.10;0.98;;;;;;;;;;10014545;29;20458;-90
2022/08/16 10:19:39;;;;;;;1.10;1.00;;;;;;;;;;10012801;29;20496;-90
2022/08/16 10:24:41;;;;;;;1.85;1.10;;;;;;;;;;10017310;29;20460;-90
2022/08/16 10:29:44;;;;;;;1.17;1.08;;;;;;;;;;10010890;29;20473;-90
2022/08/16 10:34:46;;;;;;;1.13;1.10;;;;;;;;;;10018623;29;20475;-91
2022/08/16 10:39:48;;;;;;;1.00;0.90;;;;;;;;;;10019251;29;20499;-90
2022/08/16 10:44:51;;;;;;;1.30;1.07;;;;;;;;;;10013697;29;20436;-90
2022/08/16 10:49:54;;;;;;;1.02;1.02;;;;;;;;;;10018422;29;20460;-89
2022/08/16 10:54:56;;;;;;;1.90;1.20;;;;;;;;;;10015061;29;20437;-89
2022/08/16 11:00:02;;;;;;;1.77;1.43;;;;;;;;;;10013074;29;20450;-89
2022/08/16 11:05:05;;;;;;;1.20;1.10;;;;;;;;;;10017495;29;20426;-90
2022/08/16 11:10:08;;;;;;;2.40;1.40;;;;;;;;;;10008849;29;20485;-89
2022/08/16 11:15:12;;;;;;;1.30;1.20;;;;;;;;;;10013480;29;20566;-90
2022/08/16 11:20:16;;;;;;;1.50;1.40;;;;;;;;;;10015613;29;20947;-89
2022/08/16 11:25:20;;;;;;;1.48;1.30;;;;;;;;;;10009935;29;20443;-90
2022/08/16 11:30:26;;;;;;;1.60;1.50;;;;;;;;;;10014762;29;20446;-89
2022/08/16 11:35:31;;;;;;;2.22;1.60;;;;;;;;;;10016339;29;20907;-89
2022/08/16 11:40:41;;;;;;;1.90;1.40;;;;;;;;;;10016098;29;20432;-89
2022/08/16 11:45:44;;;;;;;1.65;1.55;;;;;;;;;;10011630;29;20438;-89
2022/08/16 11:50:55;;;;;;;1.80;1.70;;;;;;;;;;10015321;29;20445;-87
2022/08/16 11:55:59;;;;;;;1.65;1.55;;;;;;;;;;10009918;29;20447;-89
2022/08/16 12:01:03;;;;;;;1.80;1.70;;;;;;;;;;10015415;29;20788;-89
2022/08/16 12:06:10;;;;;;;1.90;1.80;;;;;;;;;;10007236;29;20418;-89
2022/08/16 12:11:12;;;;;;;2.55;1.55;;;;;;;;;;10009386;29;20510;-89
2022/08/16 12:16:18;;;;;;;1.77;1.60;;;;;;;;;;10014676;29;20517;-89
2022/08/16 12:21:20;;;;;;;1.80;1.70;;;;;;;;;;10014912;29;20422;-89
2022/08/16 12:26:22;;;;;;;1.80;1.70;;;;;;;;;;10007898;29;20437;-89
2022/08/16 12:31:25;;;;;;;1.80;1.70;;;;;;;;;;10014109;29;20526;-89
2022/08/16 12:36:28;;;;;;;2.15;1.92;;;;;;;;;;10013982;29;20438;-89
2022/08/16 12:41:34;;;;;;;1.60;1.50;;;;;;;;;;10009162;29;20501;-89
2022/08/16 12:46:37;;;;;;;2.40;1.60;;;;;;;;;;10005731;29;20957;-87
2022/08/16 12:51:41;;;;;;;2.03;1.77;;;;;;;;;;10013628;29;20505;-89
2022/08/16 12:56:43;;;;;;;2.10;1.73;;;;;;;;;;10004403;29;20517;-89
2022/08/16 13:01:46;;;;;;;2.10;1.90;;;;;;;;;;10012952;29;20501;-89
2022/08/16 13:06:50;;;;;;;1.85;1.75;;;;;;;;;;10012411;29;21002;-89
2022/08/16 13:12:01;;;;;;;1.70;1.60;;;;;;;;;;10008755;29;20509;-89
2022/08/16 13:17:07;;;;;;;1.65;1.55;;;;;;;;;;10012915;29;20478;-89
2022/08/16 13:22:09;;;;;;;2.03;1.75;;;;;;;;;;10004721;29;20449;-91
2022/08/16 13:27:14;;;;;;;2.55;1.80;;;;;;;;;;10008334;29;20441;-90
2022/08/16 13:32:17;;;;;;;4.55;1.80;;;;;;;;;;10012464;29;20452;-91
2022/08/16 13:37:19;;;;;;;2.25;1.70;;;;;;;;;;10012794;29;20445;-91
2022/08/16 13:42:21;;;;;;;2.22;1.80;;;;;;;;;;10012673;29;20462;-90
2022/08/16 13:47:25;;;;;;;1.80;1.70;;;;;;;;;;10020073;29;20414;-90
2022/08/16 13:52:26;;;;;;;1.83;1.63;;;;;;;;;;10017351;29;20495;-90
2022/08/16 13:57:28;;;;;;;2.38;1.80;;;;;;;;;;10015248;29;20434;-91
2022/08/16 14:02:32;;;;;;;2.05;1.85;;;;;;;;;;10019647;29;20561;-91
2022/08/16 14:07:36;;;;;;;1.98;1.77;;;;;;;;;;10019043;29;20491;-90
2022/08/16 14:12:39;;;;;;;2.40;1.97;;;;;;;;;;10008103;29;21197;-90
2022/08/16 14:17:43;;;;;;;4.05;2.22;;;;;;;;;;10019412;29;20521;-91
2022/08/16 14:22:48;;;;;;;2.10;1.90;;;;;;;;;;10014701;29;20521;-90
2022/08/16 14:27:49;;;;;;;2.23;2.03;;;;;;;;;;10014000;29;20526;-90
2022/08/16 14:32:53;;;;;;;2.63;1.88;;;;;;;;;;10018107;29;20900;-91
2022/08/16 14:37:55;;;;;;;1.90;1.70;;;;;;;;;;10017931;29;20442;-90
2022/08/16 14:42:57;;;;;;;1.80;1.70;;;;;;;;;;10013128;29;20505;-90
2022/08/16 14:48:01;;;;;;;2.30;2.10;;;;;;;;;;10018399;29;20940;-90
2022/08/16 14:53:06;;;;;;;1.92;1.83;;;;;;;;;;10016848;29;20899;-90
2022/08/16 14:58:08;;;;;;;3.42;2.20;;;;;;;;;;10006025;29;20441;-90
2022/08/16 15:03:11;;;;;;;2.20;2.00;;;;;;;;;;10016934;29;20463;-90
2022/08/16 15:14:11;;;;;;;2.13;1.92;;;;;;;;;;9939299;29;20411;-89
2022/08/16 15:19:17;;;;;;;2.35;2.15;;;;;;;;;;10016052;29;20482;-89
2022/08/16 15:24:19;;;;;;;1.90;1.80;;;;;;;;;;10017680;29;20425;-90
2022/08/16 15:29:21;;;;;;;2.47;2.28;;;;;;;;;;10014178;29;20504;-90
2022/08/16 15:34:26;;;;;;;2.13;1.92;;;;;;;;;;10016025;29;20494;-90
2022/08/16 15:39:28;;;;;;;2.25;2.10;;;;;;;;;;10015815;29;20444;-90
2022/08/16 15:44:35;;;;;;;2.03;1.90;;;;;;;;;;10009783;29;20840;-90
2022/08/16 15:49:39;;;;;;;2.22;2.00;;;;;;;;;;10009316;29;20488;-89
2022/08/16 15:54:43;;;;;;;2.13;1.92;;;;;;;;;;10015520;29;20474;-90
2022/08/16 15:59:48;;;;;;;2.10;2.00;;;;;;;;;;10010454;29;20550;-89
2022/08/16 16:04:51;;;;;;;3.53;2.50;;;;;;;;;;10014447;29;20833;-90
2022/08/16 16:09:53;;;;;;;2.40;2.20;;;;;;;;;;10012927;29;20458;-90
2022/08/16 16:14:55;;;;;;;2.40;2.20;;;;;;;;;;10010474;29;20505;-89
2022/08/16 16:19:58;;;;;;;2.33;2.13;;;;;;;;;;10014132;29;20739;-90
2022/08/16 16:25:01;;;;;;;2.90;2.13;;;;;;;;;;9999870;29;20434;-89
2022/08/16 16:30:03;;;;;;;2.50;2.30;;;;;;;;;;9997734;29;20466;-89
2022/08/16 16:35:08;;;;;;;2.50;2.30;;;;;;;;;;9992650;29;20525;-89
2022/08/16 16:40:11;;;;;;;2.42;2.22;;;;;;;;;;10010484;29;20440;-89
2022/08/16 16:45:14;;;;;;;3.13;2.25;;;;;;;;;;10043752;29;20938;-90
2022/08/16 16:50:17;;;;;;;2.72;2.53;;;;;;;;;;10015995;29;20418;-89
2022/08/16 16:55:19;;;;;;;2.58;2.10;;;;;;;;;;10010819;29;20437;-89
2022/08/16 17:00:23;;;;;;;2.85;2.40;;;;;;;;;;10011515;29;20920;-89
2022/08/16 17:05:28;;;;;;;3.43;2.77;;;;;;;;;;10012980;29;20414;-89
2022/08/16 17:10:30;;;;;;;2.53;2.33;;;;;;;;;;10008331;29;21014;-89
2022/08/16 17:15:32;;;;;;;3.13;2.23;;;;;;;;;;10012022;29;20430;-89
2022/08/16 17:20:35;;;;;;;3.70;2.58;;;;;;;;;;10012955;29;20466;-89
2022/08/16 17:25:38;;;;;;;2.70;2.50;;;;;;;;;;9997411;29;20434;-89
2022/08/16 17:30:40;;;;;;;3.30;2.60;;;;;;;;;;10012340;29;20827;-89
2022/08/16 17:35:45;;;;;;;3.13;2.63;;;;;;;;;;10012566;29;20510;-89
2022/08/16 17:40:49;;;;;;;3.10;2.70;;;;;;;;;;10007882;29;20447;-89
2022/08/16 17:45:51;;;;;;;3.00;2.70;;;;;;;;;;10012462;29;20418;-88
2022/08/16 17:50:55;;;;;;;3.38;2.55;;;;;;;;;;10012370;29;20433;-89
2022/08/16 17:55:57;;;;;;;3.72;2.88;;;;;;;;;;10007555;29;20433;-89
2022/08/16 18:01:00;;;;;;;3.03;2.73;;;;;;;;;;10012412;29;20521;-89
2022/08/16 18:06:04;;;;;;;2.88;2.58;;;;;;;;;;10011936;29;20429;-89
2022/08/16 18:11:07;;;;;;;3.83;3.00;;;;;;;;;;10008389;29;20533;-89
2022/08/16 18:16:10;;;;;;;3.75;3.33;;;;;;;;;;10012524;29;20458;-89
2022/08/16 18:26:34;;;;;;;5.22;3.60;;;;;;;;;;10002013;29;20418;-89
2022/08/16 18:31:35;;;;;;;3.90;3.00;;;;;;;;;;10019078;29;20453;-89
2022/08/16 18:36:39;;;;;;;3.97;3.00;;;;;;;;;;10012437;29;20523;-89
2022/08/16 18:41:41;;;;;;;3.88;2.60;;;;;;;;;;10013789;29;20866;-89
2022/08/16 18:46:45;;;;;;;4.50;3.30;;;;;;;;;;10017941;29;20449;-89
2022/08/16 18:51:49;;;;;;;4.27;3.20;;;;;;;;;;10017950;29;20844;-89
2022/08/16 18:56:51;;;;;;;4.10;3.10;;;;;;;;;;10009888;29;20434;-89
2022/08/16 19:01:53;;;;;;;4.10;2.33;;;;;;;;;;10017436;29;20539;-88
2022/08/16 19:06:56;;;;;;;2.50;2.10;;;;;;;;;;10017281;29;20460;-89
2022/08/16 19:12:02;;;;;;;2.30;2.10;;;;;;;;;;10019228;29;20525;-89
2022/08/16 19:17:05;;;;;;;4.27;2.10;;;;;;;;;;10021110;29;20477;-89
2022/08/16 19:22:08;;;;;;;2.50;1.90;;;;;;;;;;10009449;29;20426;-89
2022/08/16 19:27:11;;;;;;;2.80;2.30;;;;;;;;;;10010615;29;20505;-89
2022/08/16 19:32:18;;;;;;;2.00;1.90;;;;;;;;;;10016529;29;20557;-89
2022/08/16 19:37:22;;;;;;;2.60;2.10;;;;;;;;;;10015614;29;20526;-89
2022/08/16 19:42:26;;;;;;;3.80;2.25;;;;;;;;;;10011007;29;20510;-89
2022/08/16 19:47:28;;;;;;;2.80;2.60;;;;;;;;;;10015522;29;20537;-89
2022/08/16 19:52:32;;;;;;;3.47;2.47;;;;;;;;;;10015443;29;20493;-89
2022/08/16 19:57:35;;;;;;;3.63;2.20;;;;;;;;;;10003163;29;20940;-89
2022/08/16 20:02:45;;;;;;;2.80;2.60;;;;;;;;;;10007864;29;20821;-88
2022/08/16 20:07:48;;;;;;;3.00;2.70;;;;;;;;;;10015262;29;20457;-89
2022/08/16 20:12:51;;;;;;;5.07;3.17;;;;;;;;;;10010108;29;20460;-89
2022/08/16 20:17:54;;;;;;;5.37;3.10;;;;;;;;;;10014541;29;20438;-88
2022/08/16 20:22:57;;;;;;;3.88;2.75;;;;;;;;;;10014570;29;20430;-89
2022/08/16 20:28:00;;;;;;;3.67;2.80;;;;;;;;;;10005251;29;20418;-89
2022/08/16 20:33:01;;;;;;;4.90;3.30;;;;;;;;;;10014215;29;20971;-88
2022/08/16 20:38:05;;;;;;;5.27;3.20;;;;;;;;;;10009829;29;20522;-88
2022/08/16 20:43:09;;;;;;;5.25;3.42;;;;;;;;;;10001431;29;20990;-88
2022/08/16 20:48:11;;;;;;;5.10;3.95;;;;;;;;;;10013530;29;20779;-89
2022/08/16 20:53:14;;;;;;;4.95;3.63;;;;;;;;;;10013028;29;20509;-89
2022/08/16 20:58:16;;;;;;;4.65;3.63;;;;;;;;;;10010512;29;20537;-89
2022/08/16 21:03:18;;;;;;;4.47;3.35;;;;;;;;;;10013214;29;20843;-89
2022/08/16 21:08:21;;;;;;;4.53;3.90;;;;;;;;;;10013582;29;20533;-89
2022/08/16 21:13:24;;;;;;;6.45;4.57;;;;;;;;;;10008294;29;20475;-89
2022/08/16 21:18:26;;;;;;;5.82;4.78;;;;;;;;;;10012698;29;20546;-88
2022/08/16 21:23:30;;;;;;;9.13;4.88;;;;;;;;;;10010662;29;20426;-88
2022/08/16 21:28:32;;;;;;;5.05;4.20;;;;;;;;;;10006820;29;20516;-89
2022/08/16 21:33:34;;;;;;;7.70;4.90;;;;;;;;;;10012439;29;20457;-89
2022/08/16 21:38:37;;;;;;;6.20;4.50;;;;;;;;;;10012601;29;20469;-89
2022/08/16 21:43:39;;;;;;;5.67;4.27;;;;;;;;;;10015124;29;20446;-88
2022/08/16 21:48:41;;;;;;;5.20;4.13;;;;;;;;;;10037435;29;20859;-88
2022/08/16 21:53:44;;;;;;;7.72;4.45;;;;;;;;;;10008081;29;20793;-89
2022/08/16 21:58:48;;;;;;;4.63;4.23;;;;;;;;;;10008068;29;20437;-89
2022/08/16 22:03:50;;;;;;;5.80;4.10;;;;;;;;;;10017619;29;20470;-89
2022/08/16 22:08:53;;;;;;;5.80;4.20;;;;;;;;;;10019009;29;20509;-88
2022/08/16 22:13:55;;;;;;;6.80;4.50;;;;;;;;;;10015096;29;20891;-89
2022/08/16 22:18:57;;;;;;;5.53;4.40;;;;;;;;;;10018965;29;20799;-89
2022/08/16 22:24:01;;;;;;;5.27;4.10;;;;;;;;;;10017277;29;20429;-88
2022/08/16 22:29:05;;;;;;;5.00;3.90;;;;;;;;;;10014372;29;20986;-89
2022/08/16 22:34:07;;;;;;;5.27;3.83;;;;;;;;;;10011148;29;20513;-89
2022/08/16 22:39:13;;;;;;;5.00;4.38;;;;;;;;;;10018354;29;20452;-89
2022/08/16 22:44:15;;;;;;;4.53;4.05;;;;;;;;;;10013646;29;20941;-89
2022/08/16 22:49:17;;;;;;;6.20;4.43;;;;;;;;;;10018068;29;20415;-89
2022/08/16 22:54:20;;;;;;;6.35;4.55;;;;;;;;;;10016177;29;20999;-89
2022/08/16 22:59:23;;;;;;;6.07;5.23;;;;;;;;;;10015750;29;20889;-88
2022/08/16 23:04:25;;;;;;;8.02;6.10;;;;;;;;;;10016040;29;20433;-89
2022/08/16 23:09:29;;;;;;;9.32;5.85;;;;;;;;;;10015894;29;20513;-88
2022/08/16 23:14:31;;;;;;;8.13;6.72;;;;;;;;;;10011529;29;20899;-89
2022/08/16 23:19:33;;;;;;;9.10;8.18;;;;;;;;;;10016695;29;20919;-88
2022/08/16 23:24:36;;;;;;;10.40;8.43;;;;;;;;;;10012617;29;20506;-89
2022/08/16 23:29:38;;;;;;;9.93;8.82;;;;;;;;;;10007497;29;20426;-88
2022/08/16 23:34:40;;;;;;;9.10;8.20;;;;;;;;;;10016226;29;20508;-89
2022/08/16 23:39:43;;;;;;;9.15;8.23;;;;;;;;;;10016075;29;20535;-89
2022/08/16 23:44:45;;;;;;;10.93;8.57;;;;;;;;;;10011357;29;20516;-89
2022/08/16 23:49:47;;;;;;;8.48;7.65;;;;;;;;;;10016020;29;21010;-89
2022/08/16 23:54:51;;;;;;;9.30;8.13;;;;;;;;;;10013725;29;20469;-88
2022/08/16 23:59:53;;;;;;;8.17;7.27;;;;;;;;;;10010911;29;20441;-88
